createdAt,value
2024-02-06T00:01:48.915Z,4.55
2024-02-06T00:05:50.806Z,5.10
2024-02-06T00:09:52.511Z,4.43
2024-02-06T00:13:54.318Z,4.57
2024-02-06T00:17:56.402Z,5.07
2024-02-06T00:21:58.325Z,4.65
2024-02-06T00:26:00.888Z,4.50
2024-02-06T00:30:02.745Z,4.90
2024-02-06T00:34:04.887Z,5.00
2024-02-06T00:38:06.764Z,3.92
2024-02-06T00:42:08.525Z,5.05
2024-02-06T00:46:10.296Z,4.70
2024-02-06T00:50:12.906Z,4.82
2024-02-06T00:54:14.791Z,4.68
2024-02-06T00:58:17.224Z,5.60
2024-02-06T01:02:19.022Z,4.43
2024-02-06T01:06:30.071Z,4.25
2024-02-06T01:10:31.884Z,3.85
2024-02-06T01:14:33.643Z,4.68
2024-02-06T01:18:35.524Z,3.97
2024-02-06T01:22:37.464Z,4.57
2024-02-06T01:26:39.277Z,4.25
2024-02-06T01:30:41.051Z,3.67
2024-02-06T01:34:43.217Z,4.00
2024-02-06T01:38:45.111Z,4.35
2024-02-06T01:42:48.461Z,3.97
2024-02-06T01:46:52.722Z,3.30
2024-02-06T01:50:54.742Z,4.47
2024-02-06T01:54:56.668Z,4.57
2024-02-06T01:58:58.846Z,3.97
2024-02-06T02:03:00.740Z,3.65
2024-02-06T02:07:02.999Z,3.85
2024-02-06T02:11:05.168Z,3.63
2024-02-06T02:15:07.593Z,3.30
2024-02-06T02:19:09.416Z,4.18
2024-02-06T02:23:19.664Z,3.90
2024-02-06T02:32:49.380Z,3.83
2024-02-06T02:36:51.210Z,3.97
2024-02-06T02:40:53.009Z,3.20
2024-02-06T02:44:54.828Z,4.20
2024-02-06T02:49:24.811Z,3.63
2024-02-06T02:53:26.636Z,4.32
2024-02-06T02:57:28.445Z,4.20
2024-02-06T03:01:31.834Z,4.03
2024-02-06T03:05:33.712Z,4.35
2024-02-06T03:09:36.482Z,4.93
2024-02-06T03:14:31.472Z,3.90
2024-02-06T03:18:33.850Z,4.10
2024-02-06T03:22:35.661Z,4.22
2024-02-06T03:26:37.474Z,3.95
2024-02-06T03:30:39.780Z,3.88
2024-02-06T03:34:41.537Z,3.83
2024-02-06T03:38:43.464Z,3.95
2024-02-06T03:42:45.170Z,4.18
2024-02-06T03:46:46.943Z,4.78
2024-02-06T03:50:48.821Z,3.83
2024-02-06T03:54:50.575Z,4.20
2024-02-06T03:58:52.391Z,4.15
2024-02-06T04:02:54.262Z,3.25
2024-02-06T04:06:56.246Z,3.20
2024-02-06T04:10:58.260Z,3.28
2024-02-06T04:15:00.531Z,3.78
2024-02-06T04:19:02.400Z,3.15
2024-02-06T04:23:04.908Z,3.33
2024-02-06T04:27:06.706Z,3.30
2024-02-06T04:31:08.603Z,3.30
2024-02-06T04:35:10.615Z,3.42
2024-02-06T04:39:12.408Z,3.25
2024-02-06T04:43:14.261Z,3.85
2024-02-06T04:47:16.139Z,3.88
2024-02-06T04:51:17.890Z,3.33
2024-02-06T04:55:19.755Z,3.88
2024-02-06T04:59:21.616Z,4.10
2024-02-06T05:04:13.280Z,3.45
2024-02-06T05:08:15.161Z,3.90
2024-02-06T05:12:17.088Z,3.40
2024-02-06T05:16:18.936Z,3.53
2024-02-06T05:20:20.737Z,4.00
2024-02-06T05:24:22.499Z,3.88
2024-02-06T05:28:24.351Z,4.45
2024-02-06T05:32:26.223Z,4.00
2024-02-06T05:36:27.983Z,4.97
2024-02-06T05:40:31.099Z,4.38
2024-02-06T05:44:33.006Z,3.70
2024-02-06T05:48:36.677Z,4.05
2024-02-06T05:52:39.317Z,4.22
2024-02-06T05:56:41.198Z,4.03
2024-02-06T06:00:43.027Z,4.03
2024-02-06T06:04:46.150Z,3.60
2024-02-06T06:08:48.416Z,4.05
2024-02-06T06:12:50.329Z,4.10
2024-02-06T06:16:52.220Z,3.58
2024-02-06T06:20:54.377Z,3.78
2024-02-06T06:24:56.316Z,4.20
2024-02-06T06:28:58.196Z,3.78
2024-02-06T06:33:00.321Z,4.32
2024-02-06T06:37:02.232Z,5.00
2024-02-06T06:41:04.219Z,4.53
2024-02-06T06:45:06.622Z,3.83
2024-02-06T06:49:08.584Z,3.80
2024-02-06T06:53:10.904Z,4.03
2024-02-06T06:57:12.778Z,3.95
2024-02-06T07:01:14.753Z,4.30
2024-02-06T07:05:22.462Z,4.05
2024-02-06T07:09:27.313Z,4.40
2024-02-06T07:13:29.654Z,3.83
2024-02-06T07:17:32.255Z,4.68
2024-02-06T07:21:34.610Z,4.50
2024-02-06T07:25:38.079Z,3.88
2024-02-06T07:29:39.884Z,3.40
2024-02-06T07:33:44.783Z,3.55
2024-02-06T07:37:46.781Z,5.60
2024-02-06T07:41:48.659Z,3.85
2024-02-06T07:45:52.136Z,3.33
2024-02-06T07:49:53.987Z,3.17
2024-02-06T07:53:55.999Z,4.18
2024-02-06T07:57:57.855Z,4.18
2024-02-06T08:03:02.081Z,3.45
2024-02-06T08:07:04.078Z,3.00
2024-02-06T08:11:06.040Z,4.13
2024-02-06T08:15:09.996Z,3.63
2024-02-06T08:19:12.382Z,4.00
2024-02-06T08:23:36.343Z,3.45
2024-02-06T08:27:38.222Z,3.88
2024-02-06T08:37:04.286Z,3.72
2024-02-06T08:41:07.593Z,3.40
2024-02-06T08:45:09.550Z,3.65
2024-02-06T08:49:11.340Z,2.90
2024-02-06T08:58:35.842Z,3.60
2024-02-06T09:02:37.749Z,3.40
2024-02-06T09:06:40.460Z,3.28
2024-02-06T09:10:42.653Z,2.60
2024-02-06T09:15:30.237Z,2.90
2024-02-06T09:19:32.313Z,3.13
2024-02-06T09:23:34.089Z,2.95
2024-02-06T09:27:35.915Z,2.90
2024-02-06T09:31:38.866Z,3.58
2024-02-06T09:35:40.844Z,3.25
2024-02-06T09:39:43.803Z,3.88
2024-02-06T09:43:45.693Z,3.38
2024-02-06T09:47:47.556Z,4.07
2024-02-06T09:51:50.567Z,2.45
2024-02-06T09:55:54.133Z,2.80
2024-02-06T09:59:58.797Z,3.47
2024-02-06T10:04:02.331Z,3.28
2024-02-06T10:08:05.452Z,3.38
2024-02-06T10:12:07.945Z,4.03
2024-02-06T10:16:09.937Z,3.55
2024-02-06T10:20:12.697Z,3.45
2024-02-06T10:24:19.057Z,4.03
2024-02-06T10:28:25.226Z,3.35
2024-02-06T10:32:32.092Z,2.72
2024-02-06T10:36:34.924Z,3.40
2024-02-06T10:40:37.063Z,3.33
2024-02-06T10:50:02.969Z,3.40
2024-02-06T10:54:05.127Z,3.72
2024-02-06T10:58:08.440Z,2.72
2024-02-06T11:07:40.006Z,2.72
2024-02-06T11:11:42.434Z,3.10
2024-02-06T11:15:44.916Z,3.30
2024-02-06T11:19:59.414Z,3.08
2024-02-06T11:29:24.148Z,3.65
2024-02-06T11:33:35.203Z,3.50
2024-02-06T11:37:39.810Z,3.63
2024-02-06T11:41:42.701Z,3.40
2024-02-06T11:45:45.038Z,3.63
2024-02-06T11:49:47.195Z,3.10
2024-02-06T11:53:48.957Z,3.40
2024-02-06T11:57:50.700Z,2.45
2024-02-06T12:01:52.686Z,2.65
2024-02-06T12:05:54.792Z,2.83
2024-02-06T12:09:56.647Z,2.90
2024-02-06T12:14:00.193Z,3.42
2024-02-06T12:18:05.022Z,3.03
2024-02-06T12:22:08.800Z,3.08
2024-02-06T12:26:10.593Z,3.42
2024-02-06T12:30:23.790Z,3.72
2024-02-06T12:34:25.862Z,2.85
2024-02-06T12:38:28.017Z,3.15
2024-02-06T12:42:29.769Z,2.88
2024-02-06T12:46:35.078Z,3.30
2024-02-06T12:50:36.967Z,2.97
2024-02-06T12:54:41.074Z,2.92
2024-02-06T12:58:43.295Z,2.92
2024-02-06T13:02:46.010Z,3.28
2024-02-06T13:06:47.809Z,2.60
2024-02-06T13:10:50.515Z,2.80
2024-02-06T13:14:54.196Z,2.90
2024-02-06T13:30:11.787Z,2.65
2024-02-06T13:34:14.340Z,4.68
2024-02-06T13:38:16.505Z,3.45
2024-02-06T13:42:18.340Z,3.70
2024-02-06T13:46:20.259Z,3.40
2024-02-06T13:50:23.048Z,2.58
2024-02-06T13:54:25.371Z,3.60
2024-02-06T13:58:27.227Z,3.75
2024-02-06T14:02:29.097Z,3.75
2024-02-06T14:06:30.952Z,3.42
2024-02-06T14:10:32.891Z,3.25
2024-02-06T14:14:34.746Z,3.55
2024-02-06T14:18:36.469Z,2.83
2024-02-06T14:22:38.409Z,3.33
2024-02-06T14:26:40.440Z,2.92
2024-02-06T14:30:43.764Z,2.40
2024-02-06T14:34:45.534Z,2.28
2024-02-06T14:38:47.557Z,2.85
2024-02-06T14:42:49.358Z,2.42
2024-02-06T14:46:51.215Z,2.65
2024-02-06T14:50:53.216Z,3.08
2024-02-06T14:54:56.915Z,3.30
2024-02-06T14:58:58.813Z,2.40
2024-02-06T15:03:07.259Z,2.80
2024-02-06T15:07:11.826Z,2.40
2024-02-06T15:11:13.753Z,2.72
2024-02-06T15:15:15.653Z,3.05
2024-02-06T15:19:17.904Z,2.75
2024-02-06T15:23:19.873Z,3.03
2024-02-06T15:27:21.812Z,3.50
2024-02-06T15:31:23.617Z,4.32
2024-02-06T15:40:47.103Z,3.40
2024-02-06T15:45:48.626Z,4.28
2024-02-06T15:49:50.533Z,3.70
2024-02-06T15:53:53.038Z,4.28
2024-02-06T15:57:54.956Z,5.07
2024-02-06T16:01:56.999Z,4.80
2024-02-06T16:06:00.216Z,3.78
2024-02-06T16:10:07.990Z,4.40
2024-02-06T16:14:22.299Z,5.18
2024-02-06T16:18:24.310Z,4.30
2024-02-06T16:22:26.486Z,4.63
2024-02-06T16:26:28.229Z,3.92
2024-02-06T16:30:30.115Z,4.97
2024-02-06T16:34:38.862Z,5.32
2024-02-06T16:38:42.342Z,5.72
2024-02-06T16:48:06.637Z,4.80
2024-02-06T16:52:09.365Z,4.47
2024-02-06T16:56:11.859Z,4.97
2024-02-06T17:00:14.513Z,5.20
2024-02-06T17:04:16.402Z,4.07
2024-02-06T17:08:19.224Z,4.25
2024-02-06T17:12:24.123Z,4.85
2024-02-06T17:22:44.882Z,5.28
2024-02-06T17:26:46.728Z,5.28
2024-02-06T17:30:48.570Z,5.85
2024-02-06T17:34:50.529Z,4.32
2024-02-06T17:38:52.376Z,4.10
2024-02-06T17:48:17.286Z,4.97
2024-02-06T17:57:42.331Z,5.20
2024-02-06T18:01:47.755Z,4.95
2024-02-06T18:05:49.539Z,4.47
2024-02-06T18:09:51.410Z,4.22
2024-02-06T18:13:53.585Z,4.53
2024-02-06T18:17:55.842Z,5.72
2024-02-06T18:21:59.017Z,5.05
2024-02-06T18:26:04.323Z,5.55
2024-02-06T18:30:06.756Z,4.65
2024-02-06T18:34:08.650Z,5.40
2024-02-06T18:38:10.479Z,4.88
2024-02-06T18:42:12.237Z,5.57
2024-02-06T18:46:13.951Z,5.68
2024-02-06T18:50:16.070Z,4.75
2024-02-06T18:54:17.922Z,5.00
2024-02-06T18:58:19.734Z,5.53
2024-02-06T19:02:21.553Z,5.88
2024-02-06T19:06:23.620Z,5.15
2024-02-06T19:10:25.485Z,5.38
2024-02-06T19:14:27.346Z,5.70
2024-02-06T19:18:29.252Z,4.90
2024-02-06T19:22:31.225Z,6.95
2024-02-06T19:26:33.851Z,5.55
2024-02-06T19:30:38.725Z,5.03
2024-02-06T19:34:40.675Z,6.05
2024-02-06T19:38:42.555Z,5.38
2024-02-06T19:42:44.522Z,4.97
2024-02-06T19:46:46.348Z,5.60
2024-02-06T19:50:49.493Z,4.82
2024-02-06T19:54:51.460Z,5.25
2024-02-06T19:58:53.440Z,5.03
2024-02-06T20:02:55.291Z,6.38
2024-02-06T20:06:57.091Z,5.25
2024-02-06T20:10:59.169Z,5.85
2024-02-06T20:15:01.127Z,5.47
2024-02-06T20:19:03.036Z,5.88
2024-02-06T20:23:05.761Z,5.60
2024-02-06T20:27:07.513Z,6.18
2024-02-06T20:31:09.358Z,5.15
2024-02-06T20:35:11.633Z,5.68
2024-02-06T20:39:14.126Z,4.85
2024-02-06T20:43:15.961Z,4.82
2024-02-06T20:47:17.818Z,4.72
2024-02-06T20:51:21.079Z,4.70
2024-02-06T20:55:23.090Z,5.80
2024-02-06T20:59:25.155Z,5.15
2024-02-06T21:03:26.942Z,5.38
2024-02-06T21:07:29.042Z,5.35
2024-02-06T21:11:31.962Z,5.00
2024-02-06T21:15:33.816Z,4.55
2024-02-06T21:19:35.745Z,4.28
2024-02-06T21:23:37.551Z,4.85
2024-02-06T21:27:39.320Z,4.30
2024-02-06T21:31:41.451Z,4.20
2024-02-06T21:36:58.122Z,4.53
2024-02-06T21:41:01.340Z,4.55
2024-02-06T21:45:04.663Z,4.00
2024-02-06T21:49:06.523Z,4.65
2024-02-06T21:53:08.319Z,4.22
2024-02-06T21:57:10.196Z,5.32
2024-02-06T22:01:12.117Z,4.30
2024-02-06T22:05:14.561Z,3.85
2024-02-06T22:09:16.542Z,4.32
2024-02-06T22:13:18.346Z,3.90
2024-02-06T22:17:20.583Z,3.78
2024-02-06T22:21:22.459Z,3.70
2024-02-06T22:25:24.271Z,3.25
2024-02-06T22:29:26.532Z,3.33
2024-02-06T22:33:28.476Z,3.65
2024-02-06T22:37:30.385Z,3.60
2024-02-06T22:41:32.227Z,2.15
2024-02-06T22:45:34.023Z,2.08
2024-02-06T22:49:35.945Z,1.10
2024-02-06T22:53:37.759Z,0.70
2024-02-06T22:57:40.266Z,0.80
2024-02-06T23:01:47.476Z,0.60
2024-02-06T23:05:49.344Z,1.30
2024-02-06T23:09:51.936Z,0.60
2024-02-06T23:13:54.200Z,0.60
2024-02-06T23:17:56.642Z,0.60
2024-02-06T23:21:58.477Z,0.80
2024-02-06T23:31:24.390Z,0.68
2024-02-06T23:35:26.298Z,0.82
2024-02-06T23:39:28.136Z,1.10
2024-02-06T23:43:30.597Z,0.70
2024-02-06T23:47:32.809Z,1.08
2024-02-06T23:51:35.486Z,0.70
2024-02-06T23:55:37.204Z,0.70
2024-02-06T23:59:39.009Z,0.85
